createdAt,value
2023-01-25T00:01:20.280Z,102633.91
2023-01-25T00:06:22.251Z,102628.84
2023-01-25T00:11:24.198Z,102617.02
2023-01-25T00:16:26.161Z,102607.36
2023-01-25T00:21:28.724Z,102612.20
2023-01-25T00:26:35.086Z,102605.13
2023-01-25T00:32:06.609Z,102608.30
2023-01-25T00:37:17.569Z,102607.01
2023-01-25T00:42:20.238Z,102596.77
2023-01-25T00:47:22.408Z,102589.50
2023-01-25T00:52:24.469Z,102585.57
2023-01-25T00:57:26.400Z,102581.94
2023-01-25T01:02:30.547Z,102573.38
2023-01-25T01:07:33.424Z,102564.80
2023-01-25T01:12:35.415Z,102556.70
2023-01-25T01:17:37.340Z,102554.58
2023-01-25T01:22:40.071Z,102547.00
2023-01-25T01:27:42.015Z,102541.70
2023-01-25T01:32:44.748Z,102543.21
2023-01-25T01:37:47.489Z,102541.30
2023-01-25T01:43:00.478Z,102535.23
2023-01-25T01:48:02.726Z,102528.80
2023-01-25T01:53:04.670Z,102525.33
2023-01-25T01:58:07.483Z,102524.29
2023-01-25T02:03:11.524Z,102522.59
2023-01-25T02:08:15.360Z,102516.70
2023-01-25T02:13:18.867Z,102513.59
2023-01-25T02:18:20.877Z,102515.54
2023-01-25T02:23:48.251Z,102516.77
2023-01-25T02:29:04.057Z,102522.07
2023-01-25T02:34:06.042Z,102512.98
2023-01-25T02:39:19.302Z,102512.27
2023-01-25T02:44:29.374Z,102507.68
2023-01-25T02:49:36.460Z,102508.52
2023-01-25T02:54:38.702Z,102497.41
2023-01-25T02:59:40.819Z,102495.98
2023-01-25T03:04:42.705Z,102483.32
2023-01-25T03:09:44.581Z,102479.54
2023-01-25T03:14:46.713Z,102476.74
2023-01-25T03:19:48.623Z,102471.21
2023-01-25T03:24:51.262Z,102468.81
2023-01-25T03:29:53.193Z,102469.68
2023-01-25T03:34:55.206Z,102470.96
2023-01-25T03:39:57.898Z,102470.52
2023-01-25T03:44:59.859Z,102462.82
2023-01-25T03:50:01.818Z,102454.96
2023-01-25T03:55:05.010Z,102452.98
2023-01-25T04:00:08.560Z,102449.10
2023-01-25T04:05:10.877Z,102450.26
2023-01-25T04:10:13.151Z,102447.59
2023-01-25T04:15:15.165Z,102433.27
2023-01-25T04:20:17.217Z,102416.89
2023-01-25T04:25:22.417Z,102402.81
2023-01-25T04:30:24.782Z,102396.05
2023-01-25T04:35:26.795Z,102386.96
2023-01-25T04:40:28.891Z,102387.73
2023-01-25T04:45:30.875Z,102395.09
2023-01-25T04:50:32.883Z,102387.30
2023-01-25T04:55:35.508Z,102378.62
2023-01-25T05:00:37.422Z,102368.41
2023-01-25T05:05:43.957Z,102366.55
2023-01-25T05:10:46.246Z,102359.21
2023-01-25T05:15:48.319Z,102346.15
2023-01-25T05:20:55.695Z,102333.02
2023-01-25T05:26:16.857Z,102325.66
2023-01-25T05:31:18.978Z,102317.40
2023-01-25T05:36:21.255Z,102323.52
2023-01-25T05:41:23.318Z,102324.16
2023-01-25T05:46:27.338Z,102329.22
2023-01-25T05:51:29.383Z,102327.09
2023-01-25T05:56:32.698Z,102325.13
2023-01-25T06:01:34.673Z,102334.66
2023-01-25T06:06:36.652Z,102331.53
2023-01-25T06:11:38.925Z,102334.73
2023-01-25T06:16:41.270Z,102333.40
2023-01-25T06:21:43.200Z,102325.90
2023-01-25T06:26:45.030Z,102315.48
2023-01-25T06:31:47.563Z,102316.73
2023-01-25T06:36:49.686Z,102316.38
2023-01-25T06:41:51.758Z,102312.05
2023-01-25T06:46:53.886Z,102317.49
2023-01-25T06:51:55.965Z,102323.15
2023-01-25T06:56:57.955Z,102321.92
2023-01-25T07:02:06.134Z,102325.78
2023-01-25T07:07:11.907Z,102326.05
2023-01-25T07:12:14.006Z,102317.48
2023-01-25T07:17:16.069Z,102311.97
2023-01-25T07:22:18.231Z,102304.62
2023-01-25T07:27:20.212Z,102303.27
2023-01-25T07:32:22.735Z,102304.61
2023-01-25T07:37:27.414Z,102299.69
2023-01-25T07:42:29.370Z,102287.86
2023-01-25T07:47:31.368Z,102284.74
2023-01-25T07:52:34.007Z,102282.16
2023-01-25T07:57:35.977Z,102274.00
2023-01-25T08:02:38.120Z,102265.23
2023-01-25T08:07:40.231Z,102259.08
2023-01-25T08:12:46.392Z,102249.04
2023-01-25T08:17:48.392Z,102239.92
2023-01-25T08:22:52.031Z,102239.52
2023-01-25T08:27:54.293Z,102231.52
2023-01-25T08:32:59.239Z,102226.81
2023-01-25T08:38:01.221Z,102212.73
2023-01-25T08:43:03.556Z,102206.06
2023-01-25T08:48:06.282Z,102202.79
2023-01-25T08:53:08.447Z,102202.36
2023-01-25T08:58:12.471Z,102197.98
2023-01-25T09:03:15.697Z,102196.59
2023-01-25T09:08:18.270Z,102199.83
2023-01-25T09:13:20.659Z,102197.70
2023-01-25T09:18:23.081Z,102197.11
2023-01-25T09:23:26.675Z,102199.14
2023-01-25T09:28:30.386Z,102197.34
2023-01-25T09:33:36.273Z,102183.49
2023-01-25T09:38:39.079Z,102172.20
2023-01-25T09:43:56.868Z,102161.89
2023-01-25T09:49:11.594Z,102159.52
2023-01-25T09:54:18.201Z,102160.80
2023-01-25T09:59:27.224Z,102159.63
2023-01-25T10:04:37.123Z,102156.08
2023-01-25T10:09:48.052Z,102150.52
2023-01-25T10:14:51.291Z,102144.61
2023-01-25T10:20:14.971Z,102131.72
2023-01-25T10:25:50.919Z,102124.65
2023-01-25T10:30:56.535Z,102112.36
2023-01-25T10:36:03.482Z,102108.36
2023-01-25T10:41:16.637Z,102099.20
2023-01-25T10:46:25.219Z,102092.20
2023-01-25T10:51:33.240Z,102089.52
2023-01-25T10:56:38.940Z,102086.94
2023-01-25T11:01:41.019Z,102079.98
2023-01-25T11:06:49.981Z,102066.58
2023-01-25T11:12:00.482Z,102046.88
2023-01-25T11:17:05.397Z,102043.77
2023-01-25T11:22:33.101Z,102030.66
2023-01-25T11:27:46.873Z,102021.98
2023-01-25T11:32:49.823Z,102016.02
2023-01-25T11:38:11.687Z,102011.61
2023-01-25T11:43:45.356Z,101997.40
2023-01-25T11:49:02.733Z,101982.70
2023-01-25T11:54:32.856Z,101978.46
2023-01-25T11:59:55.975Z,101967.11
2023-01-25T12:05:23.481Z,101958.14
2023-01-25T12:10:31.406Z,101956.89
2023-01-25T12:16:32.646Z,101949.77
2023-01-25T12:21:59.130Z,101936.02
2023-01-25T12:27:19.624Z,101930.63
2023-01-25T12:32:35.440Z,101920.08
2023-01-25T12:37:40.785Z,101912.73
2023-01-25T12:42:51.959Z,101902.59
2023-01-25T12:48:00.143Z,101893.48
2023-01-25T12:53:17.753Z,101878.31
2023-01-25T12:58:49.746Z,101871.85
2023-01-25T13:04:00.896Z,101863.48
2023-01-25T13:09:10.186Z,101855.75
2023-01-25T13:14:15.324Z,101852.04
2023-01-25T13:19:38.039Z,101844.29
2023-01-25T13:25:02.397Z,101836.67
2023-01-25T13:30:32.582Z,101824.52
2023-01-25T13:35:37.677Z,101828.65
2023-01-25T13:40:40.301Z,101829.42
2023-01-25T13:45:43.643Z,101832.06
2023-01-25T13:50:50.804Z,101825.10
2023-01-25T13:55:56.428Z,101821.19
2023-01-25T14:01:07.716Z,101813.44
2023-01-25T14:06:19.466Z,101809.13
2023-01-25T14:11:24.044Z,101809.42
2023-01-25T14:16:29.436Z,101804.63
2023-01-25T14:21:31.809Z,101798.65
2023-01-25T14:26:35.618Z,101787.23
2023-01-25T14:31:39.782Z,101775.39
2023-01-25T14:36:41.821Z,101770.66
2023-01-25T14:41:59.240Z,101769.61
2023-01-25T14:47:28.091Z,101769.14
2023-01-25T14:52:30.470Z,101769.95
2023-01-25T14:57:51.095Z,101759.89
2023-01-25T15:03:00.424Z,101762.39
2023-01-25T15:08:08.711Z,101748.32
2023-01-25T15:13:15.455Z,101746.09
2023-01-25T15:18:44.084Z,101748.90
2023-01-25T15:23:47.920Z,101744.85
2023-01-25T15:28:56.429Z,101739.03
2023-01-25T15:34:01.044Z,101734.83
2023-01-25T15:39:03.035Z,101728.16
2023-01-25T15:44:05.329Z,101731.96
2023-01-25T15:49:11.269Z,101725.09
2023-01-25T15:54:13.688Z,101725.33
2023-01-25T15:59:18.414Z,101722.11
2023-01-25T16:04:20.432Z,101716.60
2023-01-25T16:09:25.037Z,101712.98
2023-01-25T16:14:30.860Z,101707.73
2023-01-25T16:19:33.109Z,101699.60
2023-01-25T16:24:39.209Z,101697.54
2023-01-25T16:29:41.541Z,101688.64
2023-01-25T16:34:43.573Z,101687.81
2023-01-25T16:39:45.516Z,101681.55
2023-01-25T16:44:48.485Z,101679.20
2023-01-25T16:49:50.874Z,101675.10
2023-01-25T16:54:52.752Z,101674.90
2023-01-25T16:59:54.687Z,101671.47
2023-01-25T17:04:56.779Z,101667.36
2023-01-25T17:09:58.973Z,101665.73
2023-01-25T17:15:00.983Z,101651.86
2023-01-25T17:20:04.514Z,101644.73
2023-01-25T17:25:06.931Z,101644.92
2023-01-25T17:30:09.661Z,101637.70
2023-01-25T17:35:11.991Z,101634.91
2023-01-25T17:40:14.228Z,101631.05
2023-01-25T17:45:16.446Z,101624.31
2023-01-25T17:50:18.563Z,101619.31
2023-01-25T17:55:20.615Z,101610.01
2023-01-25T18:00:23.246Z,101608.29
2023-01-25T18:05:28.835Z,101609.20
2023-01-25T18:10:30.831Z,101598.35
2023-01-25T18:15:33.136Z,101595.86
2023-01-25T18:20:35.565Z,101586.48
2023-01-25T18:25:37.750Z,101581.95
2023-01-25T18:30:44.028Z,101582.07
2023-01-25T18:35:48.098Z,101578.16
2023-01-25T18:40:50.016Z,101576.20
2023-01-25T18:45:56.755Z,101563.48
2023-01-25T18:51:04.911Z,101552.53
2023-01-25T18:56:11.286Z,101547.59
2023-01-25T19:01:19.364Z,101536.89
2023-01-25T19:06:21.340Z,101534.38
2023-01-25T19:11:23.739Z,101526.90
2023-01-25T19:16:25.983Z,101524.89
2023-01-25T19:21:28.046Z,101519.94
2023-01-25T19:26:30.201Z,101511.27
2023-01-25T19:31:33.095Z,101508.57
2023-01-25T19:36:37.912Z,101510.16
2023-01-25T19:41:39.900Z,101508.71
2023-01-25T19:46:42.601Z,101498.05
2023-01-25T19:51:48.504Z,101491.42
2023-01-25T19:56:50.915Z,101485.80
2023-01-25T20:01:53.390Z,101486.80
2023-01-25T20:06:55.368Z,101475.56
2023-01-25T20:11:57.964Z,101477.54
2023-01-25T20:17:00.070Z,101476.61
2023-01-25T20:22:02.267Z,101475.56
2023-01-25T20:27:04.535Z,101460.23
2023-01-25T20:32:06.977Z,101454.48
2023-01-25T20:37:09.209Z,101460.09
2023-01-25T20:42:11.156Z,101458.98
2023-01-25T20:47:13.087Z,101456.14
2023-01-25T20:52:15.043Z,101455.19
2023-01-25T20:57:16.973Z,101449.38
2023-01-25T21:02:18.931Z,101447.32
2023-01-25T21:07:21.086Z,101442.08
2023-01-25T21:12:23.548Z,101439.69
2023-01-25T21:17:25.930Z,101435.99
2023-01-25T21:22:29.548Z,101433.21
2023-01-25T21:27:31.522Z,101439.44
2023-01-25T21:32:33.485Z,101435.20
2023-01-25T21:37:35.492Z,101432.25
2023-01-25T21:42:37.645Z,101436.73
2023-01-25T21:47:39.676Z,101430.40
2023-01-25T21:52:41.776Z,101420.70
2023-01-25T21:57:47.107Z,101415.45
2023-01-25T22:02:51.235Z,101406.95
2023-01-25T22:07:53.364Z,101404.30
2023-01-25T22:12:55.512Z,101414.59
2023-01-25T22:17:57.449Z,101408.58
2023-01-25T22:22:59.438Z,101398.51
2023-01-25T22:28:04.467Z,101394.27
2023-01-25T22:33:06.696Z,101382.57
2023-01-25T22:38:08.602Z,101375.98
2023-01-25T22:43:10.539Z,101376.96
2023-01-25T22:48:12.530Z,101366.84
2023-01-25T22:53:34.165Z,101355.31
2023-01-25T22:58:37.598Z,101343.78
2023-01-25T23:03:59.414Z,101349.77
2023-01-25T23:09:04.673Z,101351.02
2023-01-25T23:14:30.001Z,101341.39
2023-01-25T23:19:31.883Z,101325.36
2023-01-25T23:24:33.853Z,101320.40
2023-01-25T23:29:36.953Z,101322.50
2023-01-25T23:34:39.849Z,101319.21
2023-01-25T23:39:41.746Z,101326.34
2023-01-25T23:44:43.747Z,101325.65
2023-01-25T23:49:45.664Z,101318.78
2023-01-25T23:54:47.554Z,101310.48
2023-01-25T23:59:49.516Z,101299.92
